sensor_id;sensor_type;location;lat;lon;timestamp;P1;durP1;ratioP1;P2;durP2;ratioP2
3523;SDS011;1776;53.330;11.498;2024-01-16T00:00:45;1.50;;;0.97;;
3523;SDS011;1776;53.330;11.498;2024-01-16T00:03:11;2.73;;;0.97;;
3523;SDS011;1776;53.330;11.498;2024-01-16T00:05:36;2.57;;;1.27;;
3523;SDS011;1776;53.330;11.498;2024-01-16T00:08:02;1.00;;;0.90;;
3523;SDS011;1776;53.330;11.498;2024-01-16T00:10:27;2.43;;;1.27;;
3523;SDS011;1776;53.330;11.498;2024-01-16T00:12:52;3.40;;;1.10;;
3523;SDS011;1776;53.330;11.498;2024-01-16T00:15:18;1.27;;;1.17;;
3523;SDS011;1776;53.330;11.498;2024-01-16T00:17:43;2.10;;;1.20;;
3523;SDS011;1776;53.330;11.498;2024-01-16T00:20:08;1.20;;;1.10;;
3523;SDS011;1776;53.330;11.498;2024-01-16T00:22:34;2.00;;;0.90;;
3523;SDS011;1776;53.330;11.498;2024-01-16T00:24:59;1.90;;;1.17;;
3523;SDS011;1776;53.330;11.498;2024-01-16T00:27:25;4.67;;;2.13;;
3523;SDS011;1776;53.330;11.498;2024-01-16T00:29:50;7.13;;;3.27;;
3523;SDS011;1776;53.330;11.498;2024-01-16T00:32:15;9.63;;;4.60;;
3523;SDS011;1776;53.330;11.498;2024-01-16T00:34:44;12.00;;;4.57;;
3523;SDS011;1776;53.330;11.498;2024-01-16T00:37:09;7.10;;;3.40;;
3523;SDS011;1776;53.330;11.498;2024-01-16T00:39:35;7.83;;;2.93;;
3523;SDS011;1776;53.330;11.498;2024-01-16T00:42:01;3.87;;;2.27;;
3523;SDS011;1776;53.330;11.498;2024-01-16T00:44:29;5.57;;;2.10;;
3523;SDS011;1776;53.330;11.498;2024-01-16T00:46:54;5.47;;;2.93;;
3523;SDS011;1776;53.330;11.498;2024-01-16T00:49:19;7.57;;;4.27;;
3523;SDS011;1776;53.330;11.498;2024-01-16T00:51:45;10.10;;;4.57;;
3523;SDS011;1776;53.330;11.498;2024-01-16T00:54:10;11.30;;;4.57;;
3523;SDS011;1776;53.330;11.498;2024-01-16T00:56:35;14.37;;;4.80;;
3523;SDS011;1776;53.330;11.498;2024-01-16T00:59:01;7.00;;;3.10;;
3523;SDS011;1776;53.330;11.498;2024-01-16T01:01:27;6.90;;;3.90;;
3523;SDS011;1776;53.330;11.498;2024-01-16T01:03:52;3.60;;;1.50;;
3523;SDS011;1776;53.330;11.498;2024-01-16T01:06:17;3.53;;;1.00;;
3523;SDS011;1776;53.330;11.498;2024-01-16T01:08:42;2.57;;;1.03;;
3523;SDS011;1776;53.330;11.498;2024-01-16T01:11:08;2.63;;;1.00;;
3523;SDS011;1776;53.330;11.498;2024-01-16T01:13:33;2.17;;;1.10;;
3523;SDS011;1776;53.330;11.498;2024-01-16T01:15:58;1.50;;;0.90;;
3523;SDS011;1776;53.330;11.498;2024-01-16T01:18:24;3.60;;;1.53;;
3523;SDS011;1776;53.330;11.498;2024-01-16T01:20:49;3.07;;;1.37;;
3523;SDS011;1776;53.330;11.498;2024-01-16T01:23:14;1.40;;;0.80;;
3523;SDS011;1776;53.330;11.498;2024-01-16T01:25:39;4.63;;;1.00;;
3523;SDS011;1776;53.330;11.498;2024-01-16T01:28:05;2.00;;;1.10;;
3523;SDS011;1776;53.330;11.498;2024-01-16T01:30:31;2.53;;;1.23;;
3523;SDS011;1776;53.330;11.498;2024-01-16T01:32:56;1.77;;;1.00;;
3523;SDS011;1776;53.330;11.498;2024-01-16T01:35:22;3.80;;;1.10;;
3523;SDS011;1776;53.330;11.498;2024-01-16T01:37:47;2.80;;;1.30;;
3523;SDS011;1776;53.330;11.498;2024-01-16T01:40:12;1.77;;;1.03;;
3523;SDS011;1776;53.330;11.498;2024-01-16T01:42:40;3.80;;;1.50;;
3523;SDS011;1776;53.330;11.498;2024-01-16T01:45:09;5.53;;;1.13;;
3523;SDS011;1776;53.330;11.498;2024-01-16T01:47:35;1.60;;;1.03;;
3523;SDS011;1776;53.330;11.498;2024-01-16T01:50:01;1.40;;;1.00;;
3523;SDS011;1776;53.330;11.498;2024-01-16T01:52:28;1.20;;;0.90;;
3523;SDS011;1776;53.330;11.498;2024-01-16T01:54:55;2.27;;;1.23;;
3523;SDS011;1776;53.330;11.498;2024-01-16T01:57:21;7.30;;;1.07;;
3523;SDS011;1776;53.330;11.498;2024-01-16T01:59:46;2.33;;;1.00;;
3523;SDS011;1776;53.330;11.498;2024-01-16T02:02:11;3.47;;;0.97;;
3523;SDS011;1776;53.330;11.498;2024-01-16T02:04:37;2.93;;;0.83;;
3523;SDS011;1776;53.330;11.498;2024-01-16T02:07:04;3.23;;;1.30;;
3523;SDS011;1776;53.330;11.498;2024-01-16T02:09:30;1.83;;;0.90;;
3523;SDS011;1776;53.330;11.498;2024-01-16T02:11:55;3.33;;;1.20;;
3523;SDS011;1776;53.330;11.498;2024-01-16T02:14:21;1.27;;;0.90;;
3523;SDS011;1776;53.330;11.498;2024-01-16T02:16:46;4.70;;;0.80;;
3523;SDS011;1776;53.330;11.498;2024-01-16T02:19:11;2.20;;;0.80;;
3523;SDS011;1776;53.330;11.498;2024-01-16T02:21:43;4.73;;;1.00;;
3523;SDS011;1776;53.330;11.498;2024-01-16T02:24:10;1.13;;;0.80;;
3523;SDS011;1776;53.330;11.498;2024-01-16T02:26:36;1.70;;;1.07;;
3523;SDS011;1776;53.330;11.498;2024-01-16T02:29:02;2.73;;;1.47;;
3523;SDS011;1776;53.330;11.498;2024-01-16T02:31:29;6.80;;;1.50;;
3523;SDS011;1776;53.330;11.498;2024-01-16T02:33:54;1.73;;;1.53;;
3523;SDS011;1776;53.330;11.498;2024-01-16T02:36:20;3.20;;;1.50;;
3523;SDS011;1776;53.330;11.498;2024-01-16T02:38:45;2.60;;;1.53;;
3523;SDS011;1776;53.330;11.498;2024-01-16T02:41:12;2.37;;;1.10;;
3523;SDS011;1776;53.330;11.498;2024-01-16T02:43:38;2.83;;;1.50;;
3523;SDS011;1776;53.330;11.498;2024-01-16T02:46:03;1.53;;;1.17;;
3523;SDS011;1776;53.330;11.498;2024-01-16T02:48:29;2.53;;;1.20;;
3523;SDS011;1776;53.330;11.498;2024-01-16T02:50:54;3.07;;;1.70;;
3523;SDS011;1776;53.330;11.498;2024-01-16T02:53:19;2.30;;;1.47;;
3523;SDS011;1776;53.330;11.498;2024-01-16T02:55:44;3.53;;;1.97;;
3523;SDS011;1776;53.330;11.498;2024-01-16T02:58:10;1.93;;;1.40;;
3523;SDS011;1776;53.330;11.498;2024-01-16T03:00:35;2.30;;;1.53;;
3523;SDS011;1776;53.330;11.498;2024-01-16T03:03:01;4.10;;;1.60;;
3523;SDS011;1776;53.330;11.498;2024-01-16T03:05:26;3.70;;;1.53;;
3523;SDS011;1776;53.330;11.498;2024-01-16T03:07:52;3.73;;;2.10;;
3523;SDS011;1776;53.330;11.498;2024-01-16T03:10:17;2.97;;;1.93;;
3523;SDS011;1776;53.330;11.498;2024-01-16T03:12:42;2.73;;;1.80;;
3523;SDS011;1776;53.330;11.498;2024-01-16T03:15:07;3.37;;;2.10;;
3523;SDS011;1776;53.330;11.498;2024-01-16T03:17:33;2.10;;;1.50;;
3523;SDS011;1776;53.330;11.498;2024-01-16T03:19:58;3.73;;;2.20;;
3523;SDS011;1776;53.330;11.498;2024-01-16T03:22:23;4.30;;;2.47;;
3523;SDS011;1776;53.330;11.498;2024-01-16T03:24:50;3.17;;;1.63;;
3523;SDS011;1776;53.330;11.498;2024-01-16T03:27:15;2.23;;;2.03;;
3523;SDS011;1776;53.330;11.498;2024-01-16T03:29:41;3.73;;;1.93;;
3523;SDS011;1776;53.330;11.498;2024-01-16T03:32:06;4.60;;;2.40;;
3523;SDS011;1776;53.330;11.498;2024-01-16T03:34:31;3.30;;;2.13;;
3523;SDS011;1776;53.330;11.498;2024-01-16T03:36:57;6.50;;;2.20;;
3523;SDS011;1776;53.330;11.498;2024-01-16T03:39:22;5.90;;;2.73;;
3523;SDS011;1776;53.330;11.498;2024-01-16T03:41:47;8.30;;;4.20;;
3523;SDS011;1776;53.330;11.498;2024-01-16T03:44:12;7.50;;;4.30;;
3523;SDS011;1776;53.330;11.498;2024-01-16T03:46:38;6.87;;;4.27;;
3523;SDS011;1776;53.330;11.498;2024-01-16T03:49:03;5.23;;;3.33;;
3523;SDS011;1776;53.330;11.498;2024-01-16T03:51:28;10.07;;;4.00;;
3523;SDS011;1776;53.330;11.498;2024-01-16T03:53:53;8.77;;;3.30;;
3523;SDS011;1776;53.330;11.498;2024-01-16T03:56:19;6.87;;;3.50;;
3523;SDS011;1776;53.330;11.498;2024-01-16T03:58:44;4.97;;;2.43;;
3523;SDS011;1776;53.330;11.498;2024-01-16T04:01:09;3.23;;;2.30;;
3523;SDS011;1776;53.330;11.498;2024-01-16T04:03:35;8.13;;;2.63;;
3523;SDS011;1776;53.330;11.498;2024-01-16T04:06:00;5.47;;;3.30;;
3523;SDS011;1776;53.330;11.498;2024-01-16T04:08:25;5.97;;;3.87;;
3523;SDS011;1776;53.330;11.498;2024-01-16T04:10:51;6.93;;;3.60;;
3523;SDS011;1776;53.330;11.498;2024-01-16T04:13:16;5.10;;;3.90;;
3523;SDS011;1776;53.330;11.498;2024-01-16T04:15:41;7.30;;;3.27;;
3523;SDS011;1776;53.330;11.498;2024-01-16T04:18:06;6.47;;;3.87;;
3523;SDS011;1776;53.330;11.498;2024-01-16T04:20:32;5.80;;;3.60;;
3523;SDS011;1776;53.330;11.498;2024-01-16T04:22:57;3.00;;;2.70;;
3523;SDS011;1776;53.330;11.498;2024-01-16T04:25:25;3.90;;;2.77;;
3523;SDS011;1776;53.330;11.498;2024-01-16T04:27:50;5.60;;;3.77;;
3523;SDS011;1776;53.330;11.498;2024-01-16T04:30:16;10.63;;;3.40;;
3523;SDS011;1776;53.330;11.498;2024-01-16T04:32:41;11.20;;;5.10;;
3523;SDS011;1776;53.330;11.498;2024-01-16T04:35:07;7.33;;;4.43;;
3523;SDS011;1776;53.330;11.498;2024-01-16T04:37:33;7.80;;;4.50;;
3523;SDS011;1776;53.330;11.498;2024-01-16T04:39:58;9.30;;;4.50;;
3523;SDS011;1776;53.330;11.498;2024-01-16T04:42:24;4.40;;;3.37;;
3523;SDS011;1776;53.330;11.498;2024-01-16T04:44:49;8.37;;;3.97;;
3523;SDS011;1776;53.330;11.498;2024-01-16T04:47:15;10.80;;;5.00;;
3523;SDS011;1776;53.330;11.498;2024-01-16T04:49:41;6.27;;;3.97;;
3523;SDS011;1776;53.330;11.498;2024-01-16T04:52:07;9.03;;;4.90;;
3523;SDS011;1776;53.330;11.498;2024-01-16T04:54:32;7.13;;;5.40;;
3523;SDS011;1776;53.330;11.498;2024-01-16T04:56:58;6.20;;;4.20;;
3523;SDS011;1776;53.330;11.498;2024-01-16T04:59:23;8.80;;;5.00;;
3523;SDS011;1776;53.330;11.498;2024-01-16T05:01:48;7.67;;;4.30;;
3523;SDS011;1776;53.330;11.498;2024-01-16T05:04:13;7.33;;;4.60;;
3523;SDS011;1776;53.330;11.498;2024-01-16T05:06:39;11.73;;;5.03;;
3523;SDS011;1776;53.330;11.498;2024-01-16T05:09:04;6.33;;;4.00;;
3523;SDS011;1776;53.330;11.498;2024-01-16T05:11:29;8.23;;;4.27;;
3523;SDS011;1776;53.330;11.498;2024-01-16T05:13:55;10.17;;;4.43;;
3523;SDS011;1776;53.330;11.498;2024-01-16T05:16:26;11.77;;;3.90;;
3523;SDS011;1776;53.330;11.498;2024-01-16T05:18:52;3.10;;;2.50;;
3523;SDS011;1776;53.330;11.498;2024-01-16T05:21:18;5.30;;;3.13;;
3523;SDS011;1776;53.330;11.498;2024-01-16T05:23:44;4.67;;;2.93;;
3523;SDS011;1776;53.330;11.498;2024-01-16T05:26:09;3.30;;;2.80;;
3523;SDS011;1776;53.330;11.498;2024-01-16T05:28:35;5.23;;;2.90;;
3523;SDS011;1776;53.330;11.498;2024-01-16T05:31:00;6.27;;;4.27;;
3523;SDS011;1776;53.330;11.498;2024-01-16T05:33:25;9.77;;;5.43;;
3523;SDS011;1776;53.330;11.498;2024-01-16T05:35:51;11.90;;;4.87;;
3523;SDS011;1776;53.330;11.498;2024-01-16T05:38:16;5.60;;;2.73;;
3523;SDS011;1776;53.330;11.498;2024-01-16T05:40:41;4.90;;;3.10;;
3523;SDS011;1776;53.330;11.498;2024-01-16T05:43:07;8.40;;;5.10;;
3523;SDS011;1776;53.330;11.498;2024-01-16T05:45:32;11.13;;;4.50;;
3523;SDS011;1776;53.330;11.498;2024-01-16T05:47:57;7.03;;;3.60;;
3523;SDS011;1776;53.330;11.498;2024-01-16T05:50:22;6.80;;;3.90;;
3523;SDS011;1776;53.330;11.498;2024-01-16T05:52:48;5.30;;;2.80;;
3523;SDS011;1776;53.330;11.498;2024-01-16T05:55:13;3.40;;;2.90;;
3523;SDS011;1776;53.330;11.498;2024-01-16T05:57:38;5.63;;;3.60;;
3523;SDS011;1776;53.330;11.498;2024-01-16T06:00:04;7.03;;;3.80;;
3523;SDS011;1776;53.330;11.498;2024-01-16T06:02:30;6.07;;;4.07;;
3523;SDS011;1776;53.330;11.498;2024-01-16T06:04:55;6.10;;;3.30;;
3523;SDS011;1776;53.330;11.498;2024-01-16T06:07:21;3.13;;;2.83;;
3523;SDS011;1776;53.330;11.498;2024-01-16T06:09:46;2.53;;;2.30;;
3523;SDS011;1776;53.330;11.498;2024-01-16T06:12:11;2.57;;;2.37;;
3523;SDS011;1776;53.330;11.498;2024-01-16T06:14:37;4.17;;;3.00;;
3523;SDS011;1776;53.330;11.498;2024-01-16T06:17:03;3.63;;;3.00;;
3523;SDS011;1776;53.330;11.498;2024-01-16T06:19:30;6.63;;;2.73;;
3523;SDS011;1776;53.330;11.498;2024-01-16T06:21:55;6.97;;;2.87;;
3523;SDS011;1776;53.330;11.498;2024-01-16T06:24:21;4.90;;;3.17;;
3523;SDS011;1776;53.330;11.498;2024-01-16T06:26:46;7.87;;;4.00;;
3523;SDS011;1776;53.330;11.498;2024-01-16T06:29:12;12.43;;;3.53;;
3523;SDS011;1776;53.330;11.498;2024-01-16T06:31:37;5.20;;;3.07;;
3523;SDS011;1776;53.330;11.498;2024-01-16T06:34:03;9.93;;;4.07;;
3523;SDS011;1776;53.330;11.498;2024-01-16T06:36:28;7.40;;;4.10;;
3523;SDS011;1776;53.330;11.498;2024-01-16T06:38:54;8.23;;;3.90;;
3523;SDS011;1776;53.330;11.498;2024-01-16T06:41:19;6.20;;;3.40;;
3523;SDS011;1776;53.330;11.498;2024-01-16T06:43:44;7.83;;;4.13;;
3523;SDS011;1776;53.330;11.498;2024-01-16T06:46:09;12.70;;;4.33;;
3523;SDS011;1776;53.330;11.498;2024-01-16T06:48:35;7.63;;;4.50;;
3523;SDS011;1776;53.330;11.498;2024-01-16T06:51:01;13.47;;;6.30;;
3523;SDS011;1776;53.330;11.498;2024-01-16T06:53:27;11.93;;;4.83;;
3523;SDS011;1776;53.330;11.498;2024-01-16T06:55:52;15.77;;;6.17;;
3523;SDS011;1776;53.330;11.498;2024-01-16T06:58:18;11.03;;;5.80;;
3523;SDS011;1776;53.330;11.498;2024-01-16T07:00:43;9.73;;;5.40;;
3523;SDS011;1776;53.330;11.498;2024-01-16T07:03:08;9.07;;;5.03;;
3523;SDS011;1776;53.330;11.498;2024-01-16T07:05:34;10.57;;;5.80;;
3523;SDS011;1776;53.330;11.498;2024-01-16T07:07:59;15.30;;;5.30;;
3523;SDS011;1776;53.330;11.498;2024-01-16T07:10:24;13.20;;;4.63;;
3523;SDS011;1776;53.330;11.498;2024-01-16T07:12:50;8.13;;;4.47;;
3523;SDS011;1776;53.330;11.498;2024-01-16T07:15:16;6.47;;;4.03;;
3523;SDS011;1776;53.330;11.498;2024-01-16T07:17:42;8.13;;;4.80;;
3523;SDS011;1776;53.330;11.498;2024-01-16T07:20:07;9.40;;;4.63;;
3523;SDS011;1776;53.330;11.498;2024-01-16T07:22:33;6.63;;;4.93;;
3523;SDS011;1776;53.330;11.498;2024-01-16T07:25:01;4.93;;;3.80;;
3523;SDS011;1776;53.330;11.498;2024-01-16T07:27:26;5.90;;;4.30;;
3523;SDS011;1776;53.330;11.498;2024-01-16T07:29:52;9.13;;;4.50;;
3523;SDS011;1776;53.330;11.498;2024-01-16T07:32:17;8.43;;;5.10;;
3523;SDS011;1776;53.330;11.498;2024-01-16T07:34:42;5.63;;;3.93;;
3523;SDS011;1776;53.330;11.498;2024-01-16T07:37:08;8.70;;;4.53;;
3523;SDS011;1776;53.330;11.498;2024-01-16T07:39:33;6.40;;;3.90;;
3523;SDS011;1776;53.330;11.498;2024-01-16T07:41:58;12.23;;;4.20;;
3523;SDS011;1776;53.330;11.498;2024-01-16T07:44:23;5.93;;;4.50;;
3523;SDS011;1776;53.330;11.498;2024-01-16T07:46:49;6.60;;;5.20;;
3523;SDS011;1776;53.330;11.498;2024-01-16T07:49:14;6.50;;;4.07;;
3523;SDS011;1776;53.330;11.498;2024-01-16T07:51:41;6.57;;;3.63;;
3523;SDS011;1776;53.330;11.498;2024-01-16T07:54:07;5.13;;;3.80;;
3523;SDS011;1776;53.330;11.498;2024-01-16T07:56:34;6.60;;;4.40;;
3523;SDS011;1776;53.330;11.498;2024-01-16T07:59:00;6.47;;;3.97;;
3523;SDS011;1776;53.330;11.498;2024-01-16T08:01:26;10.13;;;5.27;;
3523;SDS011;1776;53.330;11.498;2024-01-16T08:03:51;10.00;;;5.30;;
3523;SDS011;1776;53.330;11.498;2024-01-16T08:06:17;7.77;;;4.50;;
3523;SDS011;1776;53.330;11.498;2024-01-16T08:08:42;8.13;;;4.97;;
3523;SDS011;1776;53.330;11.498;2024-01-16T08:11:07;12.03;;;5.43;;
3523;SDS011;1776;53.330;11.498;2024-01-16T08:13:33;7.03;;;5.30;;
3523;SDS011;1776;53.330;11.498;2024-01-16T08:15:58;11.23;;;5.07;;
3523;SDS011;1776;53.330;11.498;2024-01-16T08:18:23;11.33;;;5.10;;
3523;SDS011;1776;53.330;11.498;2024-01-16T08:20:48;9.60;;;5.50;;
3523;SDS011;1776;53.330;11.498;2024-01-16T08:23:14;11.23;;;5.10;;
3523;SDS011;1776;53.330;11.498;2024-01-16T08:25:39;10.60;;;5.77;;
3523;SDS011;1776;53.330;11.498;2024-01-16T08:28:04;8.70;;;5.40;;
3523;SDS011;1776;53.330;11.498;2024-01-16T08:30:30;7.63;;;4.60;;
3523;SDS011;1776;53.330;11.498;2024-01-16T08:32:55;10.33;;;5.87;;
3523;SDS011;1776;53.330;11.498;2024-01-16T08:35:20;11.17;;;4.73;;
3523;SDS011;1776;53.330;11.498;2024-01-16T08:37:46;6.23;;;4.53;;
3523;SDS011;1776;53.330;11.498;2024-01-16T08:40:11;9.30;;;4.80;;
3523;SDS011;1776;53.330;11.498;2024-01-16T08:42:37;7.87;;;4.73;;
3523;SDS011;1776;53.330;11.498;2024-01-16T08:45:02;6.97;;;5.00;;
3523;SDS011;1776;53.330;11.498;2024-01-16T08:47:28;8.63;;;4.63;;
3523;SDS011;1776;53.330;11.498;2024-01-16T08:49:53;8.50;;;4.77;;
3523;SDS011;1776;53.330;11.498;2024-01-16T08:52:18;6.97;;;4.70;;
3523;SDS011;1776;53.330;11.498;2024-01-16T08:54:44;11.93;;;5.80;;
3523;SDS011;1776;53.330;11.498;2024-01-16T08:57:09;10.53;;;4.87;;
3523;SDS011;1776;53.330;11.498;2024-01-16T08:59:35;14.70;;;5.27;;
3523;SDS011;1776;53.330;11.498;2024-01-16T09:02:00;9.90;;;5.90;;
3523;SDS011;1776;53.330;11.498;2024-01-16T09:04:26;9.90;;;5.23;;
3523;SDS011;1776;53.330;11.498;2024-01-16T09:06:51;7.03;;;5.33;;
3523;SDS011;1776;53.330;11.498;2024-01-16T09:09:17;6.87;;;4.83;;
3523;SDS011;1776;53.330;11.498;2024-01-16T09:11:42;11.50;;;5.63;;
3523;SDS011;1776;53.330;11.498;2024-01-16T09:14:07;8.60;;;5.60;;
3523;SDS011;1776;53.330;11.498;2024-01-16T09:16:33;7.90;;;5.13;;
3523;SDS011;1776;53.330;11.498;2024-01-16T09:18:59;10.73;;;5.10;;
3523;SDS011;1776;53.330;11.498;2024-01-16T09:21:24;7.13;;;4.00;;
3523;SDS011;1776;53.330;11.498;2024-01-16T09:23:50;7.97;;;4.73;;
3523;SDS011;1776;53.330;11.498;2024-01-16T09:26:15;6.60;;;4.80;;
3523;SDS011;1776;53.330;11.498;2024-01-16T09:28:40;11.80;;;4.43;;
3523;SDS011;1776;53.330;11.498;2024-01-16T09:31:06;9.70;;;5.07;;
3523;SDS011;1776;53.330;11.498;2024-01-16T09:33:33;7.93;;;4.10;;
3523;SDS011;1776;53.330;11.498;2024-01-16T09:35:59;10.00;;;4.70;;
3523;SDS011;1776;53.330;11.498;2024-01-16T09:38:24;15.33;;;4.87;;
3523;SDS011;1776;53.330;11.498;2024-01-16T09:40:50;12.53;;;4.80;;
3523;SDS011;1776;53.330;11.498;2024-01-16T09:43:17;11.10;;;4.90;;
3523;SDS011;1776;53.330;11.498;2024-01-16T09:45:43;7.50;;;4.37;;
3523;SDS011;1776;53.330;11.498;2024-01-16T09:48:09;8.10;;;4.50;;
3523;SDS011;1776;53.330;11.498;2024-01-16T09:50:36;13.03;;;4.63;;
3523;SDS011;1776;53.330;11.498;2024-01-16T09:53:02;9.73;;;4.93;;
3523;SDS011;1776;53.330;11.498;2024-01-16T09:55:28;8.70;;;4.77;;
3523;SDS011;1776;53.330;11.498;2024-01-16T09:57:53;9.30;;;4.80;;
3523;SDS011;1776;53.330;11.498;2024-01-16T10:00:19;9.97;;;5.70;;
3523;SDS011;1776;53.330;11.498;2024-01-16T10:02:45;10.37;;;4.87;;
3523;SDS011;1776;53.330;11.498;2024-01-16T10:05:11;12.80;;;5.10;;
3523;SDS011;1776;53.330;11.498;2024-01-16T10:07:37;9.87;;;5.17;;
3523;SDS011;1776;53.330;11.498;2024-01-16T10:10:03;10.30;;;4.60;;
3523;SDS011;1776;53.330;11.498;2024-01-16T10:12:29;4.50;;;3.63;;
3523;SDS011;1776;53.330;11.498;2024-01-16T10:14:55;8.40;;;3.00;;
3523;SDS011;1776;53.330;11.498;2024-01-16T10:17:20;11.57;;;3.50;;
3523;SDS011;1776;53.330;11.498;2024-01-16T10:19:50;5.27;;;3.53;;
3523;SDS011;1776;53.330;11.498;2024-01-16T10:22:20;6.83;;;3.87;;
3523;SDS011;1776;53.330;11.498;2024-01-16T10:24:47;5.00;;;3.13;;
3523;SDS011;1776;53.330;11.498;2024-01-16T10:27:15;7.97;;;3.33;;
3523;SDS011;1776;53.330;11.498;2024-01-16T10:29:54;7.47;;;3.40;;
3523;SDS011;1776;53.330;11.498;2024-01-16T10:32:28;4.73;;;3.20;;
3523;SDS011;1776;53.330;11.498;2024-01-16T10:37:40;4.33;;;2.70;;
3523;SDS011;1776;53.330;11.498;2024-01-16T10:40:09;11.50;;;2.80;;
3523;SDS011;1776;53.330;11.498;2024-01-16T10:42:36;13.83;;;4.40;;
3523;SDS011;1776;53.330;11.498;2024-01-16T10:45:02;5.60;;;3.97;;
3523;SDS011;1776;53.330;11.498;2024-01-16T10:47:28;10.13;;;2.97;;
3523;SDS011;1776;53.330;11.498;2024-01-16T10:49:53;7.90;;;2.50;;
3523;SDS011;1776;53.330;11.498;2024-01-16T10:52:19;7.13;;;3.33;;
3523;SDS011;1776;53.330;11.498;2024-01-16T10:54:49;6.50;;;4.10;;
3523;SDS011;1776;53.330;11.498;2024-01-16T10:57:15;8.90;;;3.30;;
3523;SDS011;1776;53.330;11.498;2024-01-16T11:02:30;10.50;;;2.80;;
3523;SDS011;1776;53.330;11.498;2024-01-16T11:05:03;12.40;;;3.67;;
3523;SDS011;1776;53.330;11.498;2024-01-16T11:07:31;8.90;;;2.40;;
3523;SDS011;1776;53.330;11.498;2024-01-16T11:09:57;3.07;;;2.57;;
3523;SDS011;1776;53.330;11.498;2024-01-16T11:12:23;3.53;;;2.50;;
3523;SDS011;1776;53.330;11.498;2024-01-16T11:14:51;7.40;;;3.20;;
3523;SDS011;1776;53.330;11.498;2024-01-16T11:17:17;9.40;;;3.63;;
3523;SDS011;1776;53.330;11.498;2024-01-16T11:19:45;6.50;;;3.40;;
3523;SDS011;1776;53.330;11.498;2024-01-16T11:22:12;6.77;;;3.17;;
3523;SDS011;1776;53.330;11.498;2024-01-16T11:24:38;6.23;;;3.17;;
3523;SDS011;1776;53.330;11.498;2024-01-16T11:27:03;5.47;;;2.77;;
3523;SDS011;1776;53.330;11.498;2024-01-16T11:31:54;6.93;;;3.00;;
3523;SDS011;1776;53.330;11.498;2024-01-16T11:34:54;4.97;;;2.60;;
3523;SDS011;1776;53.330;11.498;2024-01-16T11:37:14;6.33;;;2.53;;
3523;SDS011;1776;53.330;11.498;2024-01-16T11:39:40;4.50;;;2.60;;
3523;SDS011;1776;53.330;11.498;2024-01-16T11:42:06;7.53;;;2.93;;
3523;SDS011;1776;53.330;11.498;2024-01-16T11:47:07;6.80;;;3.30;;
3523;SDS011;1776;53.330;11.498;2024-01-16T11:49:34;5.93;;;3.60;;
3523;SDS011;1776;53.330;11.498;2024-01-16T11:52:00;12.07;;;3.03;;
3523;SDS011;1776;53.330;11.498;2024-01-16T11:54:25;4.70;;;3.13;;
3523;SDS011;1776;53.330;11.498;2024-01-16T12:02:02;7.00;;;3.40;;
3523;SDS011;1776;53.330;11.498;2024-01-16T12:04:37;5.70;;;2.83;;
3523;SDS011;1776;53.330;11.498;2024-01-16T12:07:02;6.93;;;2.87;;
3523;SDS011;1776;53.330;11.498;2024-01-16T12:09:28;12.10;;;3.67;;
3523;SDS011;1776;53.330;11.498;2024-01-16T12:11:58;8.83;;;3.40;;
3523;SDS011;1776;53.330;11.498;2024-01-16T12:14:26;14.60;;;4.80;;
3523;SDS011;1776;53.330;11.498;2024-01-16T12:16:51;4.90;;;2.43;;
3523;SDS011;1776;53.330;11.498;2024-01-16T12:19:16;4.77;;;3.00;;
3523;SDS011;1776;53.330;11.498;2024-01-16T12:21:43;12.80;;;3.43;;
3523;SDS011;1776;53.330;11.498;2024-01-16T12:24:10;4.30;;;2.40;;
3523;SDS011;1776;53.330;11.498;2024-01-16T12:26:36;10.97;;;2.87;;
3523;SDS011;1776;53.330;11.498;2024-01-16T12:29:02;3.60;;;2.50;;
3523;SDS011;1776;53.330;11.498;2024-01-16T12:31:27;10.23;;;4.63;;
3523;SDS011;1776;53.330;11.498;2024-01-16T12:33:55;7.97;;;3.83;;
3523;SDS011;1776;53.330;11.498;2024-01-16T12:36:30;4.93;;;3.07;;
3523;SDS011;1776;53.330;11.498;2024-01-16T12:38:55;6.00;;;4.13;;
3523;SDS011;1776;53.330;11.498;2024-01-16T12:41:21;7.37;;;3.10;;
3523;SDS011;1776;53.330;11.498;2024-01-16T12:43:49;7.23;;;2.90;;
3523;SDS011;1776;53.330;11.498;2024-01-16T12:46:15;6.20;;;2.90;;
3523;SDS011;1776;53.330;11.498;2024-01-16T12:48:41;6.53;;;2.93;;
3523;SDS011;1776;53.330;11.498;2024-01-16T12:51:06;3.33;;;3.03;;
3523;SDS011;1776;53.330;11.498;2024-01-16T12:53:32;4.73;;;2.90;;
3523;SDS011;1776;53.330;11.498;2024-01-16T12:55:58;9.87;;;4.10;;
3523;SDS011;1776;53.330;11.498;2024-01-16T12:58:25;9.47;;;3.83;;
3523;SDS011;1776;53.330;11.498;2024-01-16T13:00:56;5.20;;;3.00;;
3523;SDS011;1776;53.330;11.498;2024-01-16T13:03:22;7.70;;;2.80;;
3523;SDS011;1776;53.330;11.498;2024-01-16T13:05:59;9.60;;;3.77;;
3523;SDS011;1776;53.330;11.498;2024-01-16T13:08:25;4.77;;;3.40;;
3523;SDS011;1776;53.330;11.498;2024-01-16T13:11:03;3.33;;;2.90;;
3523;SDS011;1776;53.330;11.498;2024-01-16T13:13:30;7.63;;;2.83;;
3523;SDS011;1776;53.330;11.498;2024-01-16T13:15:55;6.87;;;3.17;;
3523;SDS011;1776;53.330;11.498;2024-01-16T13:18:22;3.70;;;2.40;;
3523;SDS011;1776;53.330;11.498;2024-01-16T13:20:50;6.17;;;3.80;;
3523;SDS011;1776;53.330;11.498;2024-01-16T13:23:16;5.40;;;2.63;;
3523;SDS011;1776;53.330;11.498;2024-01-16T13:25:42;7.23;;;3.00;;
3523;SDS011;1776;53.330;11.498;2024-01-16T13:28:09;3.63;;;2.70;;
3523;SDS011;1776;53.330;11.498;2024-01-16T13:30:35;7.40;;;3.03;;
3523;SDS011;1776;53.330;11.498;2024-01-16T13:33:00;5.07;;;3.13;;
3523;SDS011;1776;53.330;11.498;2024-01-16T13:35:26;9.47;;;3.30;;
3523;SDS011;1776;53.330;11.498;2024-01-16T13:37:52;6.57;;;3.10;;
3523;SDS011;1776;53.330;11.498;2024-01-16T13:40:17;11.33;;;2.93;;
3523;SDS011;1776;53.330;11.498;2024-01-16T13:42:43;8.17;;;3.70;;
3523;SDS011;1776;53.330;11.498;2024-01-16T13:45:09;10.37;;;3.83;;
3523;SDS011;1776;53.330;11.498;2024-01-16T13:47:34;6.20;;;3.20;;
3523;SDS011;1776;53.330;11.498;2024-01-16T13:50:04;15.03;;;3.30;;
3523;SDS011;1776;53.330;11.498;2024-01-16T13:52:30;6.90;;;3.00;;
3523;SDS011;1776;53.330;11.498;2024-01-16T13:54:55;8.50;;;2.43;;
3523;SDS011;1776;53.330;11.498;2024-01-16T13:57:22;5.70;;;2.93;;
3523;SDS011;1776;53.330;11.498;2024-01-16T13:59:47;7.40;;;2.63;;
3523;SDS011;1776;53.330;11.498;2024-01-16T14:02:12;12.00;;;3.10;;
3523;SDS011;1776;53.330;11.498;2024-01-16T14:04:38;7.47;;;3.50;;
3523;SDS011;1776;53.330;11.498;2024-01-16T14:07:03;6.97;;;3.40;;
3523;SDS011;1776;53.330;11.498;2024-01-16T14:09:32;8.80;;;3.17;;
3523;SDS011;1776;53.330;11.498;2024-01-16T14:11:58;9.03;;;3.13;;
3523;SDS011;1776;53.330;11.498;2024-01-16T14:14:24;5.60;;;3.67;;
3523;SDS011;1776;53.330;11.498;2024-01-16T14:16:49;9.70;;;4.00;;
3523;SDS011;1776;53.330;11.498;2024-01-16T14:19:14;7.33;;;3.87;;
3523;SDS011;1776;53.330;11.498;2024-01-16T14:21:40;8.30;;;4.03;;
3523;SDS011;1776;53.330;11.498;2024-01-16T14:24:06;6.73;;;4.20;;
3523;SDS011;1776;53.330;11.498;2024-01-16T14:26:32;10.50;;;4.50;;
3523;SDS011;1776;53.330;11.498;2024-01-16T14:28:57;12.50;;;3.90;;
3523;SDS011;1776;53.330;11.498;2024-01-16T14:31:22;13.27;;;4.10;;
3523;SDS011;1776;53.330;11.498;2024-01-16T14:33:48;11.30;;;3.90;;
3523;SDS011;1776;53.330;11.498;2024-01-16T14:36:13;13.33;;;5.67;;
3523;SDS011;1776;53.330;11.498;2024-01-16T14:38:38;15.43;;;4.13;;
3523;SDS011;1776;53.330;11.498;2024-01-16T14:41:03;6.60;;;3.60;;
3523;SDS011;1776;53.330;11.498;2024-01-16T14:43:29;11.47;;;3.87;;
3523;SDS011;1776;53.330;11.498;2024-01-16T14:45:54;6.10;;;2.90;;
3523;SDS011;1776;53.330;11.498;2024-01-16T14:48:19;8.30;;;4.10;;
3523;SDS011;1776;53.330;11.498;2024-01-16T14:50:45;7.90;;;3.67;;
3523;SDS011;1776;53.330;11.498;2024-01-16T14:53:12;12.20;;;4.37;;
3523;SDS011;1776;53.330;11.498;2024-01-16T14:55:37;9.00;;;4.30;;
3523;SDS011;1776;53.330;11.498;2024-01-16T14:58:02;9.53;;;4.43;;
3523;SDS011;1776;53.330;11.498;2024-01-16T15:00:28;5.63;;;3.43;;
3523;SDS011;1776;53.330;11.498;2024-01-16T15:02:54;8.43;;;4.40;;
3523;SDS011;1776;53.330;11.498;2024-01-16T15:05:19;8.43;;;3.70;;